Flight Track Log - Related Links

Times and Time Zones

All times are in EDT time to prevent confusion due to time zone crossing. See the UPS219 flight status page for this flight to view local times or setup timezone preferences in your user account.

Time Position Orientation Groundspeed Altitude Reporting Facility
EDT Latitude Longitude Course Direction KTS MPH feet Rate Location/Type
Fri 09:31:12 AM 39.8600 -75.2780 180° South 180 207 300  Level FlightAware ADS-B
Fri 09:31:22 AM 39.8550 -75.2880 237° Southwest 183 211 900 4,500 Climbing FlightAware ADS-B
Fri 09:31:28 AM 39.8475 -75.2958 219° Southwest 183 211 1,500 2,870 Climbing FlightAware ADS-B
Fri 09:31:45 AM 39.8359 -75.3073 217° Southwest 194 223 2,000 1,688 Climbing FlightAware ADS-B
Fri 09:32:00 AM 39.8237 -75.3185 215° Southwest 217 250 2,400 1,400 Climbing FlightAware ADS-B
Fri 09:32:15 AM 39.8108 -75.3310 217° Southwest 236 272 2,700 2,129 Climbing FlightAware ADS-B
Fri 09:32:31 AM 39.7972 -75.3447 218° Southwest 236 272 3,500 2,200 Climbing FlightAware ADS-B
Fri 09:32:45 AM 39.7843 -75.3556 213° Southwest 255 293 3,800 1,412 Climbing FlightAware ADS-B
Fri 09:32:48 AM 39.7810 -75.3580 209° Southwest 260 299 3,900 1,714 Climbing FlightAware ADS-B
Fri 09:32:52 AM 39.7765 -75.3605 203° Southwest 264 304 4,000 2,250 Climbing FlightAware ADS-B
Fri 09:32:56 AM 39.7719 -75.3624 198° South 266 306 4,200 3,000 Climbing FlightAware ADS-B
Fri 09:33:00 AM 39.7664 -75.3638 191° South 268 308 4,400 3,273 Climbing FlightAware ADS-B
Fri 09:33:07 AM 39.7581 -75.3642 182° South 270 311 4,800 3,273 Climbing FlightAware ADS-B
Fri 09:33:11 AM 39.7526 -75.3636 175° South 271 312 5,000 3,000 Climbing FlightAware ADS-B
Fri 09:33:15 AM 39.7481 -75.3627 171° South 273 314 5,200 2,667 Climbing FlightAware ADS-B
Fri 09:33:20 AM 39.7422 -75.3606 165° South 276 318 5,400 2,400 Climbing FlightAware ADS-B
Fri 09:33:25 AM 39.7361 -75.3574 158° South 278 320 5,600 2,500 Climbing FlightAware ADS-B
Fri 09:33:32 AM 39.7283 -75.3500 144° Southeast 282 325 5,900 2,308 Climbing FlightAware ADS-B
Fri 09:33:38 AM 39.7228 -75.3428 135° Southeast 284 327 6,100 2,400 Climbing FlightAware ADS-B
Fri 09:33:42 AM 39.7198 -75.3388 134° Southeast 285 328 6,300 2,667 Climbing FlightAware ADS-B
Fri 09:33:47 AM 39.7164 -75.3315 121° Southeast 286 329 6,500 2,250 Climbing FlightAware ADS-B
Fri 09:33:50 AM 39.7148 -75.3268 114° Southeast 288 331 6,600 2,250 Climbing FlightAware ADS-B
Fri 09:33:55 AM 39.7129 -75.3186 107° East 291 335 6,800 3,000 Climbing FlightAware ADS-B
Fri 09:34:00 AM 39.7117 -75.3082 99° East 292 336 7,100 2,667 Climbing FlightAware ADS-B
Fri 09:34:04 AM 39.7116 -75.3028 91° East 291 335 7,200 2,667 Climbing FlightAware ADS-B
Fri 09:34:09 AM 39.7123 -75.2924 85° East 292 336 7,500 3,273 Climbing FlightAware ADS-B
Fri 09:34:15 AM 39.7140 -75.2838 76° East 292 336 7,800 2,182 Climbing FlightAware ADS-B
Fri 09:34:31 AM 39.7187 -75.2562 78° East 296 341 8,300 2,222 Climbing FlightAware ADS-B
Fri 09:34:42 AM 39.7218 -75.2349 79° East 300 345 8,800 2,222 Climbing FlightAware ADS-B
Fri 09:34:58 AM 39.7257 -75.2064 80° East 304 350 9,300 2,000 Climbing FlightAware ADS-B
Fri 09:35:15 AM 39.7305 -75.1758 78° East 308 354 9,900 1,469 Climbing FlightAware ADS-B
Fri 09:35:47 AM 39.7394 -75.1142 79° East 339 390 10,500 1,108 Climbing FlightAware ADS-B
Fri 09:36:20 AM 39.7491 -75.0447 80° East 369 425 11,100 1,048 Climbing FlightAware ADS-B
Fri 09:36:50 AM 39.7585 -74.9763 80° East 394 453 11,600 492 Climbing FlightAware ADS-B
Fri 09:37:21 AM 39.7681 -74.9051 80° East 386 444 11,600 295 Level FlightAware ADS-B
Fri 09:37:51 AM 39.7775 -74.8361 80° East 393 452 11,900 1,645 Climbing FlightAware ADS-B
Fri 09:38:23 AM 39.7879 -74.7599 80° East 407 468 13,300 2,613 Climbing FlightAware ADS-B
Fri 09:38:53 AM 39.7963 -74.6862 82° East 418 481 14,600 2,557 Climbing FlightAware ADS-B
Fri 09:39:24 AM 39.8031 -74.6071 84° East 431 496 15,900 2,571 Climbing FlightAware ADS-B
Fri 09:39:56 AM 39.8099 -74.5262 84° East 439 505 17,300 2,476 Climbing FlightAware ADS-B
Fri 09:40:27 AM 39.8157 -74.4437 85° East 452 520 18,500 2,361 Climbing FlightAware ADS-B
Fri 09:40:57 AM 39.8175 -74.3586 88° East 461 531 19,700 2,361 Climbing FlightAware ADS-B
Fri 09:41:28 AM 39.8175 -74.2719 90° East 468 539 20,900 2,192 Climbing FlightAware ADS-B
Fri 09:41:49 AM 39.8178 -74.2122 90° East 472 543 21,600 1,714 Climbing FlightAware ADS-B
Fri 09:42:03 AM 39.8243 -74.1735 78° East 469 540 21,900 1,733 Climbing FlightAware ADS-B
Fri 09:42:34 AM 39.8489 -74.0918 69° East 470 541 22,900 1,435 Climbing FlightAware ADS-B
Fri 09:42:49 AM 39.8609 -74.0522 68° East 477 549 23,000 150 Climbing FlightAware ADS-B
Fri 09:43:14 AM 39.8844 -73.9872 65° Northeast 475 547 23,000  Level FlightAware ADS-B
Fri 09:43:48 AM 39.9178 -73.9001 63° Northeast 475 547 23,000  Level FlightAware ADS-B
Fri 09:44:24 AM 39.9522 -73.8100 64° Northeast 477 549 23,000  Level FlightAware ADS-B
Fri 09:44:54 AM 39.9814 -73.7293 65° Northeast 480 552 23,000 476 Level FlightAware ADS-B
Fri 09:45:27 AM 40.0130 -73.6460 64° Northeast 481 554 23,500 1,690 Climbing FlightAware ADS-B
Fri 09:46:05 AM 40.0504 -73.5441 64° Northeast 482 555 25,000 2,108 Climbing FlightAware ADS-B
Fri 09:46:41 AM 40.0852 -73.4490 64° Northeast 487 560 26,100 2,000 Climbing FlightAware ADS-B
Fri 09:47:35 AM 40.1384 -73.3052 64° Northeast 488 562 28,000 2,094 Climbing FlightAware ADS-B
Fri 09:48:27 AM 40.1860 -73.1760 64° Northeast 482 555 29,800 2,000 Climbing FlightAware ADS-B
Fri 09:49:08 AM 40.2285 -73.0607 64° Northeast 480 552 31,100 1,703 Climbing FlightAware ADS-B
Fri 09:49:41 AM 40.2603 -72.9743 64° Northeast 482 555 31,900 1,403 Climbing FlightAware ADS-B
Fri 09:50:25 AM 40.3017 -72.8607 64° Northeast 484 557 32,900 725 Climbing FlightAware ADS-B
Fri 09:51:12 AM 40.3450 -72.7420 64° Northeast 484 557 33,000 67 Climbing FlightAware ADS-B
Fri 09:51:54 AM 40.3872 -72.6246 65° Northeast 486 559 33,000  Level FlightAware ADS-B
Fri 09:52:24 AM 40.4165 -72.5417 65° Northeast 486 559 33,000  Level FlightAware ADS-B
Fri 09:52:58 AM 40.4488 -72.4515 65° Northeast 485 558 33,000  Level FlightAware ADS-B
Fri 09:54:02 AM 40.5080 -72.2860 65° Northeast 484 557 33,000  Level FlightAware ADS-B
Fri 09:54:26 AM 40.5331 -72.2172 64° Northeast 484 557 33,000  Level FlightAware ADS-B
Fri 09:55:22 AM 40.5810 -72.0810 65° Northeast 484 557 33,000  Level FlightAware ADS-B
Fri 09:56:07 AM 40.6250 -71.9560 65° Northeast 484 557 33,000  Level FlightAware ADS-B
Fri 09:56:47 AM 40.6600 -71.8570 65° Northeast 484 557 33,000  Level FlightAware ADS-B
Fri 09:57:32 AM 40.7050 -71.7280 65° Northeast 485 558 33,000  Level FlightAware ADS-B
Fri 09:58:02 AM 40.7340 -71.6480 64° Northeast 487 560 33,000  Level FlightAware ADS-B
Fri 09:58:47 AM 40.7750 -71.5280 66° East 489 563 33,000  Level FlightAware ADS-B
Fri 09:59:37 AM 40.8240 -71.3870 65° Northeast 493 567 33,000  Level FlightAware ADS-B
Fri 10:00:17 AM 40.8610 -71.2800 65° Northeast 492 566 33,000  Level FlightAware ADS-B
Fri 10:00:52 AM 40.8910 -71.1920 66° East 490 564 33,000  Level FlightAware ADS-B
Fri 10:01:52 AM 40.9720 -71.0570 51° Northeast 488 562 33,000  Level FlightAware ADS-B
Fri 10:02:02 AM 41.0090 -71.0380 21° North 493 567 33,000  Level FlightAware ADS-B
Fri 10:02:52 AM 41.1020 -70.9510 35° Northeast 495 570 33,000  Level FlightAware ADS-B
Fri 10:03:32 AM 41.1730 -70.8870 34° Northeast 491 565 33,000  Level FlightAware ADS-B
Fri 10:04:12 AM 41.2520 -70.8140 35° Northeast 492 566 33,000  Level FlightAware ADS-B
Fri 10:04:57 AM 41.3400 -70.7310 35° Northeast 493 567 33,000  Level FlightAware ADS-B
Fri 10:05:42 AM 41.4190 -70.6580 35° Northeast 495 570 33,000  Level FlightAware ADS-B
Fri 10:06:22 AM 41.4970 -70.5850 35° Northeast 496 571 33,000  Level FlightAware ADS-B
Fri 10:07:02 AM 41.5790 -70.5080 35° Northeast 497 572 33,000  Level FlightAware ADS-B
Fri 10:07:47 AM 41.6610 -70.4300 35° Northeast 499 574 33,000  Level FlightAware ADS-B
Fri 10:09:12 AM 41.8220 -70.2770 35° Northeast 498 573 33,000  Level FlightAware ADS-B
Fri 10:09:57 AM 41.9080 -70.1950 35° Northeast 500 575 33,000  Level FlightAware ADS-B
Fri 10:10:42 AM 41.9940 -70.1130 35° Northeast 501 577 33,000  Level FlightAware ADS-B
Fri 10:11:22 AM 42.0710 -70.0400 35° Northeast 500 575 33,000  Level FlightAware ADS-B
Fri 10:12:02 AM 42.1440 -69.9700 35° Northeast 501 577 33,000  Level FlightAware ADS-B
Fri 10:12:47 AM 42.2330 -69.8830 36° Northeast 503 579 33,000  Level FlightAware ADS-B
Fri 10:13:27 AM 42.3090 -69.8110 35° Northeast 503 579 33,000  Level FlightAware ADS-B
Fri 10:14:12 AM 42.3970 -69.7250 36° Northeast 512 589 33,000  Level FlightAware ADS-B
Fri 10:14:52 AM 42.4760 -69.6480 36° Northeast 513 590 33,000  Level FlightAware ADS-B
Fri 10:15:32 AM 42.5500 -69.5750 36° Northeast 514 592 33,000  Level FlightAware ADS-B
Fri 10:16:17 AM 42.6380 -69.4890 36° Northeast 517 595 33,000  Level FlightAware ADS-B
Fri 10:16:57 AM 42.7150 -69.4130 36° Northeast 518 596 33,000  Level FlightAware ADS-B
Fri 10:17:42 AM 42.8030 -69.3260 36° Northeast 521 600 33,000  Level FlightAware ADS-B
Fri 10:18:22 AM 42.8760 -69.2550 35° Northeast 522 601 33,000  Level FlightAware ADS-B
Fri 10:19:02 AM 42.9590 -69.1710 37° Northeast 523 602 33,000  Level FlightAware ADS-B
Fri 10:19:57 AM 43.0660 -69.0660 36° Northeast 518 596 33,000  Level FlightAware ADS-B
Fri 10:20:57 AM 43.1830 -68.9480 36° Northeast 520 598 33,000  Level FlightAware ADS-B
Fri 10:21:37 AM 43.2630 -68.8670 36° Northeast 520 598 33,000  Level FlightAware ADS-B
Fri 10:22:17 AM 43.3410 -68.7890 36° Northeast 522 601 33,000  Level FlightAware ADS-B
Fri 10:22:57 AM 43.4080 -68.7230 36° Northeast 522 601 33,000  Level FlightAware ADS-B
Fri 10:23:37 AM 43.4740 -68.6560 36° Northeast 522 601 33,000  Level FlightAware ADS-B
Fri 10:25:37 AM 43.7330 -68.3890 37° Northeast 528 608 33,000  Level FlightAware ADS-B
Fri 10:26:12 AM 43.7960 -68.3230 37° Northeast 528 608 33,000  Level FlightAware ADS-B
Fri 10:26:57 AM 43.8960 -68.2220 36° Northeast 536 617 33,000  Level FlightAware ADS-B
Fri 10:27:42 AM 43.9900 -68.1250 37° Northeast 538 619 33,000  Level FlightAware ADS-B
Fri 10:28:22 AM 44.0720 -68.0390 37° Northeast 538 619 33,000  Level FlightAware ADS-B
Fri 10:29:07 AM 44.1600 -67.9470 37° Northeast 532 612 33,000  Level FlightAware ADS-B
Fri 10:29:47 AM 44.2410 -67.8610 37° Northeast 532 612 33,000  Level FlightAware ADS-B
Fri 10:30:27 AM 44.3200 -67.7800 36° Northeast 532 612 33,000  Level FlightAware ADS-B
Fri 10:31:12 AM 44.4100 -67.6830 38° Northeast 533 613 33,000  Level FlightAware ADS-B
Fri 10:32:07 AM 44.5190 -67.5690 37° Northeast 533 613 33,000  Level FlightAware ADS-B
Fri 10:33:32 AM 44.6890 -67.3870 37° Northeast 541 623 33,000  Level FlightAware ADS-B
Fri 10:34:07 AM 44.7580 -67.3140 37° Northeast 535 616 33,000  Level FlightAware ADS-B
Fri 10:34:52 AM 44.8490 -67.2150 38° Northeast 535 616 33,000  Level FlightAware ADS-B
Fri 10:35:52 AM 44.9740 -67.0970 34° Northeast 546 628 33,000  Level FlightAware ADS-B
Fri 10:36:32 AM 45.0590 -67.0250 31° Northeast 546 628 33,000  Level FlightAware ADS-B
Fri 10:37:17 AM 45.1590 -66.9410 31° Northeast 547 629 33,000  Level FlightAware ADS-B
Fri 10:38:12 AM 45.2780 -66.8400 31° Northeast 541 623 33,000  Level FlightAware ADS-B
Fri 10:39:22 AM 45.4310 -66.7100 31° Northeast 544 626 33,000  Level FlightAware ADS-B
Fri 10:40:47 AM 45.6160 -66.5510 31° Northeast 545 627 33,000  Level FlightAware ADS-B
Fri 10:41:57 AM 45.7690 -66.4180 31° Northeast 545 627 33,000  Level FlightAware ADS-B
Fri 10:43:07 AM 45.9230 -66.2850 31° Northeast 547 629 33,000  Level FlightAware ADS-B
Fri 10:44:17 AM 46.0750 -66.1510 31° Northeast 546 628 33,000  Level FlightAware ADS-B
Fri 10:45:12 AM 46.1750 -66.0650 31° Northeast 546 628 33,000  Level FlightAware ADS-B
Fri 10:45:52 AM 46.2490 -66.0010 31° Northeast 546 628 33,000  Level FlightAware ADS-B
Fri 10:46:32 AM 46.3220 -65.9370 31° Northeast 546 628 33,000  Level FlightAware ADS-B
Fri 10:47:22 AM 46.4140 -65.8570 31° Northeast 546 628 33,000  Level FlightAware ADS-B
Fri 10:48:02 AM 46.4880 -65.7930 31° Northeast 546 628 33,000  Level FlightAware ADS-B
Fri 10:48:42 AM 46.5610 -65.7280 31° Northeast 546 628 33,000  Level FlightAware ADS-B
Fri 10:49:22 AM 46.6350 -65.6640 31° Northeast 546 628 33,000  Level FlightAware ADS-B
Fri 10:50:02 AM 46.7090 -65.5990 31° Northeast 546 628 33,000  Level FlightAware ADS-B
Fri 10:50:42 AM 46.7820 -65.5350 31° Northeast 546 628 33,000  Level FlightAware ADS-B
Fri 10:51:32 AM 46.8740 -65.4540 31° Northeast 546 628 33,000  Level FlightAware ADS-B
Fri 10:52:12 AM 46.9480 -65.3890 31° Northeast 546 628 33,000  Level FlightAware ADS-B
Fri 10:52:52 AM 47.0220 -65.3240 31° Northeast 546 628 33,000  Level FlightAware ADS-B
Fri 10:53:32 AM 47.0950 -65.2590 31° Northeast 546 628 33,000  Level FlightAware ADS-B
Fri 10:54:22 AM 47.1870 -65.1780 31° Northeast 546 628 33,000  Level FlightAware ADS-B
Fri 10:54:59 AM 47.4500 -64.8833 31° Northeast 560 644 33,000  Level Gander Center
Fri 10:55:27 AM 47.5167 -64.8167 34° Northeast 560 644 33,000  Level Moncton Center
Fri 10:56:27 AM 47.6500 -64.7000 31° Northeast 560 644 33,000  Level Moncton Center
Fri 10:57:27 AM 47.7833 -64.5667 34° Northeast 560 644 33,000  Level Moncton Center
Fri 10:58:27 AM 47.9167 -64.4500 30° Northeast 560 644 33,000  Level Moncton Center
Fri 10:59:27 AM 48.0333 -64.3167 37° Northeast 560 644 33,000  Level Moncton Center
Fri 11:00:27 AM 48.1667 -64.2000 30° Northeast 560 644 33,000  Level Moncton Center
Fri 11:01:27 AM 48.3000 -64.0667 34° Northeast 560 644 33,000  Level Moncton Center
Fri 11:02:27 AM 48.4333 -63.9500 30° Northeast 550 633 33,000  Level Moncton Center
Fri 11:03:27 AM 48.5667 -63.8167 33° Northeast 550 633 33,000  Level Moncton Center
Fri 11:04:27 AM 48.7000 -63.6833 33° Northeast 550 633 33,000  Level Moncton Center
Fri 11:04:59 AM 48.7500 -63.6167 41° Northeast 540 621 33,000  Level Gander Center
Fri 11:05:27 AM 48.8167 -63.5500 33° Northeast 560 644 33,000  Level Moncton Center
Fri 11:06:27 AM 48.9500 -63.4333 30° Northeast 540 621 33,000  Level Moncton Center
Fri 11:06:59 AM 49.0167 -63.3667 33° Northeast 540 621 33,000  Level Gander Center
Fri 11:07:59 AM 49.1500 -63.2167 36° Northeast 550 633 33,000  Level Gander Center
Fri 11:08:27 AM 49.2000 -63.2000 12° North 550 633 33,000  Level Moncton Center
Fri 11:09:27 AM 49.3333 -63.0333 39° Northeast 540 621 33,000  Level Moncton Center
Fri 11:10:27 AM 49.4500 -62.9333 29° Northeast 540 621 33,000  Level Moncton Center
Fri 11:11:27 AM 49.5833 -62.8000 33° Northeast 540 621 33,000  Level Moncton Center
Fri 11:11:59 AM 49.6500 -62.7333 33° Northeast 550 633 33,000  Level Gander Center
Fri 11:12:27 AM 49.7000 -62.6667 41° Northeast 540 621 33,000  Level Moncton Center
Fri 11:13:27 AM 49.8333 -62.5333 33° Northeast 550 633 33,000  Level Moncton Center
Fri 11:13:59 AM 49.9000 -62.4500 39° Northeast 550 633 33,000  Level Gander Center
Fri 11:14:59 AM 50.0333 -62.3167 33° Northeast 540 621 33,000  Level Gander Center
Fri 11:15:59 AM 50.1500 -62.2000 33° Northeast 560 644 33,000  Level Gander Center
Fri 11:16:27 AM 50.2000 -62.1167 47° Northeast 560 644 33,000  Level Moncton Center
Fri 11:17:27 AM 50.3333 -61.9833 33° Northeast 550 633 33,000  Level Moncton Center
Fri 11:17:59 AM 50.4000 -61.9167 33° Northeast 550 633 33,000  Level Gander Center
Fri 11:18:59 AM 50.5167 -61.7833 36° Northeast 550 633 33,000  Level Gander Center
Fri 11:19:59 AM 50.6500 -61.6500 32° Northeast 550 633 33,000  Level Gander Center
Fri 11:20:27 AM 50.7167 -61.5667 38° Northeast 540 621 33,000  Level Moncton Center
Fri 11:21:27 AM 50.8500 -61.4333 32° Northeast 550 633 33,000  Level Moncton Center
Fri 11:21:59 AM 50.9167 -61.3667 32° Northeast 560 644 33,000  Level Gander Center
Fri 11:22:59 AM 51.0333 -61.2333 36° Northeast 560 644 33,000  Level Gander Center
Fri 11:23:59 AM 51.1667 -61.0667 38° Northeast 560 644 33,000  Level Gander Center
Fri 11:24:59 AM 51.2833 -60.9333 36° Northeast 560 644 33,000  Level Gander Center
Fri 11:25:27 AM 51.3500 -60.8667 32° Northeast 560 644 33,000  Level Moncton Center
Fri 11:26:27 AM 51.4833 -60.7167 35° Northeast 560 644 33,000  Level Moncton Center
Fri 11:26:59 AM 51.5500 -60.6333 38° Northeast 560 644 33,000  Level Gander Center
Fri 11:27:27 AM 51.6000 -60.5667 40° Northeast 560 644 33,000  Level Moncton Center
Fri 11:28:27 AM 51.7333 -60.4167 35° Northeast 560 644 33,000  Level Moncton Center
Fri 11:28:59 AM 51.8000 -60.3333 38° Northeast 560 644 33,000 326 Level Gander Center
Fri 11:29:59 AM 51.9167 -60.2000 35° Northeast 560 644 33,500 818 Climbing Gander Center
Fri 11:30:27 AM 51.9833 -60.1000 43° Northeast 560 644 34,200 1,023 Climbing Moncton Center
Fri 11:31:27 AM 52.1000 -59.9333 41° Northeast 560 644 35,000 522 Climbing Moncton Center
Fri 11:31:59 AM 52.1500 -59.8333 51° Northeast 560 644 35,000  Level Gander Center
Fri 11:32:59 AM 52.2833 -59.6667 37° Northeast 560 644 35,000  Level Gander Center
Fri 11:33:59 AM 52.3833 -59.5000 45° Northeast 560 644 35,000  Level Gander Center
Fri 11:34:59 AM 52.5000 -59.3000 46° Northeast 550 633 35,000  Level Gander Center
Fri 11:35:59 AM 52.6167 -59.1667 35° Northeast 550 633 35,000  Level Gander Center
Fri 11:36:59 AM 52.7167 -58.9667 50° Northeast 550 633 35,000  Level Gander Center
Fri 11:37:59 AM 52.8333 -58.7833 43° Northeast 550 633 35,000  Level Gander Center
Fri 11:38:27 AM 52.8833 -58.7167 39° Northeast 550 633 35,000  Level Moncton Center
Fri 11:39:27 AM 53.0000 -58.5333 43° Northeast 550 633 35,000  Level Moncton Center
Fri 11:39:59 AM 53.0667 -58.4500 37° Northeast 550 633 35,000  Level Gander Center
Fri 11:40:27 AM 53.1000 -58.3500 61° Northeast 550 633 35,000  Level Moncton Center
Fri 11:40:59 AM 53.1500 -58.2667 45° Northeast 550 633 35,000  Level Gander Center
Fri 11:41:59 AM 53.2833 -58.1000 37° Northeast 550 633 35,000  Level Gander Center
Fri 11:42:59 AM 53.3833 -57.9167 48° Northeast 550 633 35,000  Level Gander Center
Fri 11:43:27 AM 53.4333 -57.8333 45° Northeast 550 633 35,000  Level Moncton Center
Fri 11:44:27 AM 53.5333 -57.6333 50° Northeast 550 633 35,000  Level Moncton Center
Fri 11:44:59 AM 53.6000 -57.5667 31° Northeast 550 633 35,000  Level Gander Center
Fri 11:45:59 AM 53.7167 -57.3500 48° Northeast 560 644 35,000  Level Gander Center
Fri 11:46:59 AM 53.8333 -57.1667 43° Northeast 550 633 35,000  Level Gander Center
Fri 11:47:59 AM 53.9333 -57.0000 44° Northeast 550 633 35,000  Level Gander Center
Fri 11:48:59 AM 54.0500 -56.8167 43° Northeast 560 644 35,000  Level Gander Center
Fri 11:49:59 AM 54.1667 -56.6333 43° Northeast 550 633 35,000  Level Gander Center
Fri 11:50:59 AM 54.2667 -56.4500 47° Northeast 560 644 35,000  Level Gander Center
Fri 11:51:27 AM 54.3167 -56.3333 54° Northeast 560 644 35,000  Level Moncton Center
Fri 11:51:59 AM 54.3833 -56.2500 36° Northeast 550 633 35,000  Level Gander Center
Fri 11:52:59 AM 54.4833 -56.0500 49° Northeast 550 633 35,000  Level Gander Center
Fri 11:53:59 AM 54.5833 -55.8500 49° Northeast 550 633 35,000  Level Gander Center
Fri 11:54:59 AM 54.6500 -55.6500 60° Northeast 540 621 35,000  Level Gander Center
Fri 11:55:59 AM 54.7333 -55.4000 60° Northeast 540 621 35,000  Level Gander Center
Fri 11:56:59 AM 54.7833 -55.2000 66° East 530 610 35,000  Level Gander Center
Fri 11:57:59 AM 54.8333 -54.9167 73° East 530 610 35,000  Level Gander Center
Fri 11:58:59 AM 54.9000 -54.7167 60° Northeast 520 598 35,000  Level Gander Center
Fri 11:59:59 AM 54.9500 -54.4667 71° East 530 610 35,000  Level Gander Center
Fri 12:00:59 PM 55.0000 -54.2333 69° East 520 598 35,000  Level Gander Center
Fri 12:01:59 PM 55.0500 -54.0167 68° East 520 598 35,000  Level Gander Center
Fri 12:02:59 PM 55.1167 -53.8000 62° Northeast 520 598 35,000  Level Gander Center
Fri 12:03:34 PM 55.1333 -53.6500 79° East 520 598 35,000  Level Gander Center
Fri 12:03:59 PM 55.1667 -53.5500 60° Northeast 520 598 35,000  Level Gander Center
Fri 12:04:59 PM 55.2167 -53.3333 68° East 520 598 35,000  Level Gander Center
Fri 12:05:59 PM 55.2833 -53.0833 65° Northeast 520 598 35,000  Level Gander Center
Fri 12:06:59 PM 55.3333 -52.8667 68° East 520 598 35,000  Level Gander Center
Fri 12:07:59 PM 55.3833 -52.6167 71° East 520 598 35,000  Level Gander Center
Fri 12:08:59 PM 55.4500 -52.4000 61° Northeast 520 598 35,000  Level Gander Center
Fri 12:09:34 PM 55.4833 -52.2500 69° East 520 598 35,000  Level Gander Center
Fri 12:10:34 PM 55.5333 -52.0000 70° East 520 598 35,000  Level Gander Center
Fri 12:10:59 PM 55.5333 -51.9000 90° East 520 598 35,000  Level Gander Center
Fri 12:11:34 PM 55.6000 -51.7667 48° Northeast 520 598 35,000  Level Gander Center
Fri 12:12:34 PM 55.6500 -51.5500 68° East 520 598 35,000  Level Gander Center
Fri 12:12:59 PM 55.6500 -51.4333 90° East 520 598 35,000  Level Gander Center
Fri 12:13:34 PM 55.6667 -51.2833 79° East 520 598 35,000  Level Gander Center
Fri 12:14:34 PM 55.7333 -51.0500 63° Northeast 540 621 35,000  Level Gander Center
Fri 12:14:59 PM 55.7500 -50.9667 70° East 540 621 35,000  Level Gander Center
Fri 12:15:59 PM 55.8000 -50.7333 69° East 540 621 35,000  Level Gander Center
Fri 12:18:00 PM 55.9220 -50.2887 64° Northeast  Level FlightAware Approximate
Fri 12:25:00 PM 56.3153 -48.7097 66° East  Level FlightAware Approximate
Fri 12:26:00 PM 56.3692 -48.4810 67° East  Level FlightAware Approximate
Fri 12:27:00 PM 56.4228 -48.2517 67° East  Level FlightAware Approximate
Fri 12:28:00 PM 56.4759 -48.0218 67° East  Level FlightAware Approximate
Fri 12:29:00 PM 56.5286 -47.7912 67° East  Level FlightAware Approximate
Fri 12:30:00 PM 56.5808 -47.5600 68° East  Level FlightAware Approximate
Fri 12:31:00 PM 56.6327 -47.3281 68° East  Level FlightAware Approximate
Fri 12:32:00 PM 56.6839 -47.0956 68° East  Level FlightAware Approximate
Fri 12:33:00 PM 56.7347 -46.8623 68° East  Level FlightAware Approximate
Fri 12:34:00 PM 56.7851 -46.6284 68° East  Level FlightAware Approximate
Fri 12:35:00 PM 56.8350 -46.3939 69° East  Level FlightAware Approximate
Fri 12:36:00 PM 56.8844 -46.1588 69° East  Level FlightAware Approximate
Fri 12:37:00 PM 56.9334 -45.9230 69° East  Level FlightAware Approximate
Fri 12:38:00 PM 56.9820 -45.6866 69° East  Level FlightAware Approximate
Fri 12:39:00 PM 57.0302 -45.4497 69° East  Level FlightAware Approximate
Fri 12:40:00 PM 57.0778 -45.2121 70° East  Level FlightAware Approximate
Fri 12:41:00 PM 57.1251 -44.9739 70° East  Level FlightAware Approximate
Fri 12:42:00 PM 57.1718 -44.7351 70° East  Level FlightAware Approximate
Fri 12:43:00 PM 57.2182 -44.4956 70° East  Level FlightAware Approximate
Fri 12:44:00 PM 57.2634 -44.2552 71° East  Level FlightAware Approximate
Fri 12:45:00 PM 57.3079 -44.0140 71° East  Level FlightAware Approximate
Fri 12:46:00 PM 57.3519 -43.7723 71° East  Level FlightAware Approximate
Fri 12:47:00 PM 57.3955 -43.5299 71° East  Level FlightAware Approximate
Fri 12:48:00 PM 57.4389 -43.2872 71° East  Level FlightAware Approximate
Fri 12:49:00 PM 57.4838 -43.0451 71° East  Level FlightAware Approximate
Fri 12:50:00 PM 57.5283 -42.8025 71° East  Level FlightAware Approximate
Fri 12:51:00 PM 57.5723 -42.5592 71° East  Level FlightAware Approximate
Fri 12:52:00 PM 57.6159 -42.3154 71° East  Level FlightAware Approximate
Fri 12:53:00 PM 57.6589 -42.0709 72° East  Level FlightAware Approximate
Fri 12:54:00 PM 57.7013 -41.8259 72° East  Level FlightAware Approximate
Fri 12:55:00 PM 57.7433 -41.5803 72° East  Level FlightAware Approximate
Fri 12:56:00 PM 57.7849 -41.3341 72° East  Level FlightAware Approximate
Fri 12:57:00 PM 57.8259 -41.0873 73° East  Level FlightAware Approximate
Fri 12:58:00 PM 57.8665 -40.8400 73° East  Level FlightAware Approximate
Fri 12:59:00 PM 57.9066 -40.5921 73° East  Level FlightAware Approximate
Fri 01:00:00 PM 57.9462 -40.3437 73° East  Level FlightAware Approximate
Fri 01:01:00 PM 57.9853 -40.0947 73° East  Level FlightAware Approximate
Fri 01:02:00 PM 58.0062 -39.8392 86° East  Level FlightAware Approximate
Fri 01:03:00 PM 58.0158 -39.5798 86° East  Level FlightAware Approximate
Fri 01:04:00 PM 58.0249 -39.3203 86° East  Level FlightAware Approximate
Fri 01:05:00 PM 58.0334 -39.0607 86° East  Level FlightAware Approximate
Fri 01:06:00 PM 58.0415 -38.8009 87° East  Level FlightAware Approximate
Fri 01:07:00 PM 58.0489 -38.5411 87° East  Level FlightAware Approximate
Fri 01:08:00 PM 58.0559 -38.2811 87° East  Level FlightAware Approximate
Fri 01:09:00 PM 58.0623 -38.0211 87° East  Level FlightAware Approximate
Fri 01:10:00 PM 58.0682 -37.7609 87° East  Level FlightAware Approximate
Fri 01:11:00 PM 58.0736 -37.5007 88° East  Level FlightAware Approximate
Fri 01:12:00 PM 58.0784 -37.2404 88° East  Level FlightAware Approximate
Fri 01:13:00 PM 58.0827 -36.9800 88° East  Level FlightAware Approximate
Fri 01:14:00 PM 58.0865 -36.7196 88° East  Level FlightAware Approximate
Fri 01:15:00 PM 58.0898 -36.4591 89° East  Level FlightAware Approximate
Fri 01:16:00 PM 58.0925 -36.1986 89° East  Level FlightAware Approximate
Fri 01:17:00 PM 58.0947 -35.9380 89° East  Level FlightAware Approximate
Fri 01:18:00 PM 58.0963 -35.6774 89° East  Level FlightAware Approximate
Fri 01:19:00 PM 58.0974 -35.4168 89° East  Level FlightAware Approximate
Fri 01:20:00 PM 58.0980 -35.1562 90° East  Level FlightAware Approximate
Fri 01:21:00 PM 58.0980 -34.8956 90° East  Level FlightAware Approximate
Fri 01:22:00 PM 58.0976 -34.6349 90° East  Level FlightAware Approximate
Fri 01:23:00 PM 58.0966 -34.3743 90° East  Level FlightAware Approximate
Fri 01:24:00 PM 58.0950 -34.1137 91° East  Level FlightAware Approximate
Fri 01:25:00 PM 58.0929 -33.8531 91° East  Level FlightAware Approximate
Fri 01:26:00 PM 58.0903 -33.5926 91° East  Level FlightAware Approximate
Fri 01:27:00 PM 58.0872 -33.3321 91° East  Level FlightAware Approximate
Fri 01:28:00 PM 58.0835 -33.0717 91° East  Level FlightAware Approximate
Fri 01:29:00 PM 58.0793 -32.8113 92° East  Level FlightAware Approximate
Fri 01:30:00 PM 58.0746 -32.5510 92° East  Level FlightAware Approximate
Fri 01:31:00 PM 58.0693 -32.2907 92° East  Level FlightAware Approximate
Fri 01:32:00 PM 58.0635 -32.0305 92° East  Level FlightAware Approximate
Fri 01:33:00 PM 58.0572 -31.7705 93° East  Level FlightAware Approximate
Fri 01:34:00 PM 58.0504 -31.5105 93° East  Level FlightAware Approximate
Fri 01:35:00 PM 58.0430 -31.2506 93° East  Level FlightAware Approximate
Fri 01:36:00 PM 58.0351 -30.9908 93° East  Level FlightAware Approximate
Fri 01:37:00 PM 58.0266 -30.7312 93° East  Level FlightAware Approximate
Fri 01:38:00 PM 58.0177 -30.4717 94° East  Level FlightAware Approximate
Fri 01:39:00 PM 58.0082 -30.2123 94° East  Level FlightAware Approximate
Fri 01:40:00 PM 57.9972 -29.9532 96° East  Level FlightAware Approximate
Fri 01:41:00 PM 57.9818 -29.6950 96° East  Level FlightAware Approximate
Fri 01:42:00 PM 57.9658 -29.4370 97° East  Level FlightAware Approximate
Fri 01:43:00 PM 57.9493 -29.1793 97° East  Level FlightAware Approximate
Fri 01:44:00 PM 57.9323 -28.9218 97° East  Level FlightAware Approximate
Fri 01:45:00 PM 57.9147 -28.6645 97° East  Level FlightAware Approximate
Fri 01:46:00 PM 57.8966 -28.4075 97° East  Level FlightAware Approximate
Fri 01:47:00 PM 57.8781 -28.1508 98° East  Level FlightAware Approximate
Fri 01:48:00 PM 57.8590 -27.8943 98° East  Level FlightAware Approximate
Fri 01:49:00 PM 57.8393 -27.6381 98° East  Level FlightAware Approximate
Fri 01:50:00 PM 57.8192 -27.3822 98° East  Level FlightAware Approximate
Fri 01:51:00 PM 57.7986 -27.1266 99° East  Level FlightAware Approximate
Fri 01:52:00 PM 57.7774 -26.8713 99° East  Level FlightAware Approximate
Fri 01:53:00 PM 57.7557 -26.6163 99° East  Level FlightAware Approximate
Fri 01:54:00 PM 57.7335 -26.3616 99° East  Level FlightAware Approximate
Fri 01:55:00 PM 57.7108 -26.1072 99° East  Level FlightAware Approximate
Fri 01:56:00 PM 57.6876 -25.8531 100° East  Level FlightAware Approximate
Fri 01:57:00 PM 57.6639 -25.5994 100° East  Level FlightAware Approximate
Fri 01:58:00 PM 57.6397 -25.3460 100° East  Level FlightAware Approximate
Fri 01:59:00 PM 57.6149 -25.0929 100° East  Level FlightAware Approximate
Fri 02:00:00 PM 57.5897 -24.8402 100° East  Level FlightAware Approximate
Fri 02:01:00 PM 57.5640 -24.5879 101° East  Level FlightAware Approximate
Fri 02:02:00 PM 57.5377 -24.3359 101° East  Level FlightAware Approximate
Fri 02:03:00 PM 57.5110 -24.0842 101° East  Level FlightAware Approximate
Fri 02:04:00 PM 57.4838 -23.8330 101° East  Level FlightAware Approximate
Fri 02:05:00 PM 57.4560 -23.5821 102° East  Level FlightAware Approximate
Fri 02:06:00 PM 57.4278 -23.3316 102° East  Level FlightAware Approximate
Fri 02:07:00 PM 57.3991 -23.0815 102° East  Level FlightAware Approximate
Fri 02:08:00 PM 57.3698 -22.8318 102° East  Level FlightAware Approximate
Fri 02:09:00 PM 57.3401 -22.5824 102° East  Level FlightAware Approximate
Fri 02:10:00 PM 57.3099 -22.3335 103° East  Level FlightAware Approximate
Fri 02:11:00 PM 57.2792 -22.0850 103° East  Level FlightAware Approximate
Fri 02:12:00 PM 57.2480 -21.8370 103° East  Level FlightAware Approximate
Fri 02:13:00 PM 57.2163 -21.5893 103° East  Level FlightAware Approximate
Fri 02:14:00 PM 57.1842 -21.3421 103° East  Level FlightAware Approximate
Fri 02:15:00 PM 57.1515 -21.0953 104° East  Level FlightAware Approximate
Fri 02:16:00 PM 57.1184 -20.8489 104° East  Level FlightAware Approximate
Fri 02:17:00 PM 57.0847 -20.6030 104° East  Level FlightAware Approximate
Fri 02:18:00 PM 57.0506 -20.3575 104° East  Level FlightAware Approximate
Fri 02:19:00 PM 57.0161 -20.1125 104° East  Level FlightAware Approximate
Fri 02:20:00 PM 56.9731 -19.8727 111° Southeast  Level FlightAware Approximate
Fri 02:21:00 PM 56.9229 -19.6376 111° Southeast  Level FlightAware Approximate
Fri 02:22:00 PM 56.8722 -19.4030 111° Southeast  Level FlightAware Approximate
Fri 02:23:00 PM 56.8212 -19.1691 112° Southeast  Level FlightAware Approximate
Fri 02:24:00 PM 56.7696 -18.9359 112° Southeast  Level FlightAware Approximate
Fri 02:25:00 PM 56.7177 -18.7033 112° Southeast  Level FlightAware Approximate
Fri 02:26:00 PM 56.6653 -18.4713 112° Southeast  Level FlightAware Approximate
Fri 02:27:00 PM 56.6125 -18.2400 112° Southeast  Level FlightAware Approximate
Fri 02:28:00 PM 56.5593 -18.0093 113° Southeast  Level FlightAware Approximate
Fri 02:29:00 PM 56.5056 -17.7793 113° Southeast  Level FlightAware Approximate
Fri 02:30:00 PM 56.4515 -17.5499 113° Southeast  Level FlightAware Approximate
Fri 02:31:00 PM 56.3970 -17.3212 113° Southeast  Level FlightAware Approximate
Fri 02:32:00 PM 56.3421 -17.0931 113° Southeast  Level FlightAware Approximate
Fri 02:33:00 PM 56.2867 -16.8657 114° Southeast  Level FlightAware Approximate
Fri 02:34:00 PM 56.2310 -16.6390 114° Southeast  Level FlightAware Approximate
Fri 02:35:00 PM 56.1748 -16.4129 114° Southeast  Level FlightAware Approximate
Fri 02:36:00 PM 56.1182 -16.1875 114° Southeast  Level FlightAware Approximate
Fri 02:37:00 PM 56.0612 -15.9628 114° Southeast  Level FlightAware Approximate
Fri 02:38:00 PM 56.0038 -15.7387 115° Southeast  Level FlightAware Approximate
Fri 02:39:00 PM 55.9460 -15.5152 115° Southeast  Level FlightAware Approximate
Fri 02:40:00 PM 55.8878 -15.2925 115° Southeast  Level FlightAware Approximate
Fri 02:41:00 PM 55.8292 -15.0704 115° Southeast  Level FlightAware Approximate
Fri 02:42:00 PM 55.7702 -14.8490 115° Southeast  Level FlightAware Approximate
Fri 02:43:00 PM 55.7108 -14.6283 115° Southeast  Level FlightAware Approximate
Fri 02:44:00 PM 55.6510 -14.4082 116° Southeast  Level FlightAware Approximate
Fri 02:45:00 PM 55.5908 -14.1888 116° Southeast  Level FlightAware Approximate
Fri 02:46:00 PM 55.5302 -13.9701 116° Southeast  Level FlightAware Approximate
Fri 02:47:00 PM 55.4692 -13.7520 116° Southeast  Level FlightAware Approximate
Fri 02:48:00 PM 55.4079 -13.5347 116° Southeast  Level FlightAware Approximate
Fri 02:49:00 PM 55.3461 -13.3180 117° Southeast  Level FlightAware Approximate
Fri 02:50:00 PM 55.2840 -13.1020 117° Southeast  Level FlightAware Approximate
Fri 02:50:22 PM 55.3450 -13.0730 117° Southeast 520 598 35,000  Level FlightAware ADS-B
Fri 02:51:00 PM 55.2215 -12.8866 117° Southeast  Level FlightAware Approximate
Fri 02:51:07 PM 55.2870 -12.9090 122° Southeast 519 597 35,000  Level FlightAware ADS-B
Fri 02:51:52 PM 55.2300 -12.7490 122° Southeast 517 595 35,000  Level FlightAware ADS-B
Fri 02:52:32 PM 55.1790 -12.6070 122° Southeast 515 593 35,000  Level FlightAware ADS-B
Fri 02:53:17 PM 55.1210 -12.4490 123° Southeast 513 590 35,000  Level FlightAware ADS-B
Fri 02:53:57 PM 55.0710 -12.3100 122° Southeast 511 588 35,000  Level FlightAware ADS-B
Fri 02:54:37 PM 55.0200 -12.1680 122° Southeast 509 586 35,000  Level FlightAware ADS-B
Fri 02:55:22 PM 54.9640 -12.0160 123° Southeast 508 585 35,000  Level FlightAware ADS-B
Fri 02:56:17 PM 54.8980 -11.8370 123° Southeast 508 585 35,000  Level FlightAware ADS-B
Fri 02:57:07 PM 54.8320 -11.6630 123° Southeast 509 586 35,000  Level FlightAware ADS-B
Fri 02:57:57 PM 54.7680 -11.4890 122° Southeast 508 585 35,000  Level FlightAware ADS-B
Fri 02:58:37 PM 54.7160 -11.3560 124° Southeast 508 585 35,000  Level FlightAware ADS-B
Fri 02:59:17 PM 54.6660 -11.2240 123° Southeast 505 581 35,000  Level FlightAware ADS-B
Fri 02:59:57 PM 54.6120 -11.0810 123° Southeast 513 590 35,000  Level FlightAware ADS-B
Fri 03:00:42 PM 54.5510 -10.9200 123° Southeast 512 589 35,000  Level FlightAware ADS-B
Fri 03:01:27 PM 54.4910 -10.7690 124° Southeast 521 600 35,000  Level FlightAware ADS-B
Fri 03:02:07 PM 54.4370 -10.6280 123° Southeast 523 602 35,000  Level FlightAware ADS-B
Fri 03:02:47 PM 54.3840 -10.4930 124° Southeast 523 602 35,000  Level FlightAware ADS-B
Fri 03:03:32 PM 54.3220 -10.3360 124° Southeast 523 602 35,000  Level FlightAware ADS-B
Fri 03:04:12 PM 54.2680 -10.2020 125° Southeast 522 601 35,000  Level FlightAware ADS-B
Fri 03:04:57 PM 54.2130 -10.0620 124° Southeast 521 600 35,000  Level FlightAware ADS-B
Fri 03:05:37 PM 54.1530 -9.9100 124° Southeast 519 597 35,000  Level FlightAware ADS-B
Fri 03:06:12 PM 54.1060 -9.7960 125° Southeast 517 595 35,000  Level FlightAware ADS-B
Fri 03:06:57 PM 54.0440 -9.6420 124° Southeast 514 592 35,000  Level FlightAware ADS-B
Fri 03:07:47 PM 53.9850 -9.4970 125° Southeast 511 588 35,000  Level FlightAware ADS-B
Fri 03:08:27 PM 53.9280 -9.3580 125° Southeast 511 588 35,000  Level FlightAware ADS-B
Fri 03:09:07 PM 53.8770 -9.2340 125° Southeast 511 588 35,000  Level FlightAware ADS-B
Fri 03:09:52 PM 53.8120 -9.0770 125° Southeast 508 585 35,000 -1,385 Level FlightAware ADS-B
Fri 03:10:12 PM 53.7793 -8.9966 125° Southeast 464 534 33,500 -2,368 Descending FlightAware UK
Fri 03:10:30 PM 53.7552 -8.9385 125° Southeast 462 532 33,500 3,000 Level FlightAware UK
Fri 03:10:42 PM 53.7450 -8.9160 125° Southeast 505 581 35,000  Climbing FlightAware ADS-B
Fri 03:11:00 PM 53.7147 -8.8415 125° Southeast 460 529 33,500 -2,500 Descending FlightAware UK
Fri 03:11:18 PM 53.6905 -8.7836 125° Southeast 462 532 33,500 4,091 Level FlightAware UK
Fri 03:11:22 PM 53.6870 -8.7780 125° Southeast 503 579 35,000  Climbing FlightAware ADS-B
Fri 03:11:42 PM 53.6580 -8.7070 125° Southeast 460 529 33,500 -2,368 Descending FlightAware UK
Fri 03:12:00 PM 53.6338 -8.6497 125° Southeast 462 532 33,500 3,000 Level FlightAware UK
Fri 03:12:12 PM 53.6200 -8.6180 125° Southeast 501 577 35,000  Climbing FlightAware ADS-B
Fri 03:12:30 PM 53.5934 -8.5546 125° Southeast 458 527 33,500 -2,500 Descending FlightAware UK
Fri 03:12:48 PM 53.5692 -8.4980 126° Southeast 458 527 33,500 4,091 Level FlightAware UK
Fri 03:12:52 PM 53.5680 -8.4980 126° Southeast 500 575 35,000  Climbing FlightAware ADS-B
Fri 03:13:12 PM 53.5367 -8.4216 126° Southeast 458 527 33,500 -2,368 Descending FlightAware UK
Fri 03:13:30 PM 53.5127 -8.3647 125° Southeast 458 527 33,500 4,500 Level FlightAware UK
Fri 03:13:32 PM 53.5130 -8.3690 125° Southeast 500 575 35,000  Climbing FlightAware ADS-B
Fri 03:13:48 PM 53.4886 -8.3081 125° Southeast 460 529 33,500 -2,647 Descending FlightAware UK
Fri 03:14:06 PM 53.4644 -8.2516 126° Southeast 460 529 33,500 3,103 Level FlightAware UK
Fri 03:14:17 PM 53.4520 -8.2240 126° Southeast 498 573 35,000  Climbing FlightAware ADS-B
Fri 03:14:36 PM 53.4238 -8.1579 126° Southeast 460 529 33,500 -2,432 Descending FlightAware UK
Fri 03:14:54 PM 53.3995 -8.1016 126° Southeast 460 529 33,500 3,462 Level FlightAware UK
Fri 03:15:02 PM 53.3930 -8.0860 126° Southeast 499 574 35,000  Climbing FlightAware ADS-B
Fri 03:15:18 PM 53.3672 -8.0267 126° Southeast 462 532 33,500 -2,647 Descending FlightAware UK
Fri 03:15:36 PM 53.3429 -7.9705 126° Southeast 462 532 33,500 3,750 Level FlightAware UK
Fri 03:15:42 PM 53.3390 -7.9620 126° Southeast 498 573 35,000  Climbing FlightAware ADS-B
Fri 03:16:00 PM 53.3105 -7.8958 126° Southeast 462 532 33,500  Descending FlightAware UK
Fri 03:16:17 PM 53.2920 -7.8530 126° Southeast 497 572 35,000  Climbing FlightAware ADS-B
Fri 03:16:18 PM 53.2861 -7.8399 126° Southeast 458 527 33,500 -4,737 Descending FlightAware UK
Fri 03:16:36 PM 53.2616 -7.7842 126° Southeast 460 529 33,500  Level FlightAware UK
Fri 03:16:54 PM 53.2372 -7.7285 126° Southeast 458 527 33,500 2,903 Level FlightAware UK
Fri 03:17:07 PM 53.2260 -7.7040 126° Southeast 498 573 35,000  Climbing FlightAware ADS-B
Fri 03:17:24 PM 53.1965 -7.6356 126° Southeast 460 529 33,500 -2,571 Descending FlightAware UK
Fri 03:17:42 PM 53.1721 -7.5798 126° Southeast 462 532 33,500 3,913 Level FlightAware UK
Fri 03:17:47 PM 53.1680 -7.5710 126° Southeast 499 574 35,000  Climbing FlightAware ADS-B
Fri 03:18:06 PM 53.1394 -7.5056 126° Southeast 460 529 33,500 -2,432 Descending FlightAware UK
Fri 03:18:24 PM 53.1147 -7.4498 126° Southeast 464 534 33,500 4,286 Level FlightAware UK
Fri 03:18:27 PM 53.1130 -7.4470 126° Southeast 501 577 35,000  Climbing FlightAware ADS-B
Fri 03:18:42 PM 53.0900 -7.3941 126° Southeast 464 534 33,500 -2,727 Descending FlightAware UK
Fri 03:19:00 PM 53.0651 -7.3385 127° Southeast 464 534 33,500 3,000 Level FlightAware UK
Fri 03:19:12 PM 53.0500 -7.3040 127° Southeast 503 579 35,000  Climbing FlightAware ADS-B
Fri 03:19:30 PM 53.0236 -7.2454 127° Southeast 468 539 33,500 -2,500 Descending FlightAware UK
Fri 03:19:48 PM 52.9984 -7.1890 127° Southeast 464 534 33,500 4,091 Level FlightAware UK
Fri 03:19:52 PM 52.9960 -7.1840 127° Southeast 501 577 35,000  Climbing FlightAware ADS-B
Fri 03:20:12 PM 52.9651 -7.1150 127° Southeast 466 536 33,500 -2,368 Descending FlightAware UK
Fri 03:20:30 PM 52.9401 -7.0595 127° Southeast 466 536 33,500 4,500 Level FlightAware UK
Fri 03:20:32 PM 52.9420 -7.0660 127° Southeast 502 578 35,000  Climbing FlightAware ADS-B
Fri 03:20:48 PM 52.9154 -7.0037 127° Southeast 464 534 33,500 -2,647 Descending FlightAware UK
Fri 03:21:06 PM 52.8904 -6.9483 127° Southeast 464 534 33,500 3,103 Level FlightAware UK
Fri 03:21:17 PM 52.8760 -6.9190 127° Southeast 502 578 35,000  Climbing FlightAware ADS-B
Fri 03:21:36 PM 52.8485 -6.8562 127° Southeast 468 539 33,500 -2,432 Descending FlightAware UK
Fri 03:21:54 PM 52.8234 -6.8010 127° Southeast 468 539 33,500 3,462 Level FlightAware UK
Fri 03:22:02 PM 52.8150 -6.7840 127° Southeast 502 578 35,000  Climbing FlightAware ADS-B
Fri 03:22:18 PM 52.7899 -6.7275 127° Southeast 470 541 33,500 -2,647 Descending FlightAware UK
Fri 03:22:36 PM 52.7649 -6.6725 127° Southeast 472 543 33,500 4,737 Level FlightAware UK
Fri 03:22:37 PM 52.7670 -6.6770 127° Southeast 501 577 35,000  Climbing FlightAware ADS-B
Fri 03:22:54 PM 52.7398 -6.6176 127° Southeast 470 541 33,500 -2,571 Descending FlightAware UK
Fri 03:23:12 PM 52.7147 -6.5628 127° Southeast 472 543 33,500 3,214 Level FlightAware UK
Fri 03:23:22 PM 52.7040 -6.5400 127° Southeast 500 575 35,000  Climbing FlightAware ADS-B
Fri 03:23:42 PM 52.6729 -6.4717 127° Southeast 468 539 33,500 -2,368 Descending FlightAware UK
Fri 03:24:00 PM 52.6477 -6.4172 127° Southeast 472 543 33,500 3,600 Level FlightAware UK
Fri 03:24:07 PM 52.6400 -6.4030 127° Southeast 500 575 35,000  Climbing FlightAware ADS-B
Fri 03:24:24 PM 52.6141 -6.3446 127° Southeast 472 543 33,500 -2,571 Descending FlightAware UK
Fri 03:24:42 PM 52.5889 -6.2903 127° Southeast 476 548 33,500 3,913 Level FlightAware UK
Fri 03:24:47 PM 52.5840 -6.2830 127° Southeast 499 574 35,000  Climbing FlightAware ADS-B
Fri 03:25:06 PM 52.5553 -6.2181 127° Southeast 472 543 33,500 -2,432 Descending FlightAware UK
Fri 03:25:24 PM 52.5301 -6.1641 127° Southeast 474 545 33,500 4,286 Level FlightAware UK
Fri 03:25:27 PM 52.5270 -6.1590 127° Southeast 496 571 35,000  Climbing FlightAware ADS-B
Fri 03:25:42 PM 52.5050 -6.1101 127° Southeast 472 543 33,500 -2,727 Descending FlightAware UK
Fri 03:26:00 PM 52.4799 -6.0564 128° Southeast 470 541 33,500 3,000 Level FlightAware UK
Fri 03:26:12 PM 52.4660 -6.0280 128° Southeast 496 571 35,000  Climbing FlightAware ADS-B
Fri 03:26:30 PM 52.4377 -5.9665 128° Southeast 468 539 33,500 -2,500 Descending FlightAware UK
Fri 03:26:48 PM 52.4172 -5.9090 120° Southeast 470 541 33,500 4,091 Level FlightAware UK
Fri 03:26:52 PM 52.4160 -5.9040 120° Southeast 491 565 35,000  Climbing FlightAware ADS-B
Fri 03:27:12 PM 52.3947 -5.8279 120° Southeast 470 541 33,500 -2,368 Descending FlightAware UK
Fri 03:27:30 PM 52.3820 -5.7645 108° East 466 536 33,500 3,600 Level FlightAware UK
Fri 03:27:37 PM 52.3790 -5.7530 108° East 488 562 35,000  Climbing FlightAware ADS-B
Fri 03:27:54 PM 52.3639 -5.6811 108° East 468 539 33,500 -2,571 Descending FlightAware UK
Fri 03:28:12 PM 52.3508 -5.6182 109° East 468 539 33,500 3,913 Level FlightAware UK
Fri 03:28:17 PM 52.3490 -5.6100 109° East 487 560 35,000  Climbing FlightAware ADS-B
Fri 03:28:36 PM 52.3332 -5.5346 109° East 466 536 33,500 -2,432 Descending FlightAware UK
Fri 03:28:54 PM 52.3200 -5.4719 109° East 466 536 33,500 4,286 Level FlightAware UK
Fri 03:28:57 PM 52.3200 -5.4700 109° East 488 562 35,000  Climbing FlightAware ADS-B
Fri 03:29:12 PM 52.3068 -5.4092 109° East 468 539 33,500 -2,727 Descending FlightAware UK
Fri 03:29:30 PM 52.2936 -5.3463 109° East 468 539 33,500 3,000 Level FlightAware UK
Fri 03:29:42 PM 52.2870 -5.3170 109° East 488 562 35,000  Climbing FlightAware ADS-B
Fri 03:30:00 PM 52.2715 -5.2419 109° East 468 539 33,500 -2,500 Descending FlightAware UK
Fri 03:30:18 PM 52.2581 -5.1793 109° East 468 539 33,500 4,091 Level FlightAware UK
Fri 03:30:22 PM 52.2570 -5.1740 109° East 487 560 35,000  Climbing FlightAware ADS-B
Fri 03:30:42 PM 52.2404 -5.0960 109° East 468 539 33,500 -2,368 Descending FlightAware UK
Fri 03:31:00 PM 52.2270 -5.0336 109° East 466 536 33,500 3,600 Level FlightAware UK
Fri 03:31:07 PM 52.2240 -5.0220 109° East 488 562 35,000  Climbing FlightAware ADS-B
Fri 03:31:24 PM 52.2088 -4.9499 109° East 470 541 33,500 -2,571 Descending FlightAware UK
Fri 03:31:42 PM 52.1953 -4.8877 110° East 470 541 33,500 3,913 Level FlightAware UK
Fri 03:31:47 PM 52.1940 -4.8830 110° East 487 560 35,000  Climbing FlightAware ADS-B
Fri 03:32:06 PM 52.1772 -4.8048 110° East 466 536 33,500 -2,432 Descending FlightAware UK
Fri 03:32:24 PM 52.1636 -4.7427 110° East 466 536 33,500 3,462 Level FlightAware UK
Fri 03:32:32 PM 52.1600 -4.7250 110° East 488 562 35,000  Climbing FlightAware ADS-B
Fri 03:32:48 PM 52.1455 -4.6598 110° East 468 539 33,500 -2,647 Descending FlightAware UK
Fri 03:33:06 PM 52.1320 -4.5976 109° East 468 539 33,500 3,750 Level FlightAware UK
Fri 03:33:12 PM 52.1290 -4.5870 109° East 487 560 35,000  Climbing FlightAware ADS-B
Fri 03:33:30 PM 52.1137 -4.5148 109° East 470 541 33,500  Descending FlightAware UK
Fri 03:33:44 PM 52.1034 -4.4694 109° East 487 560 35,000  Climbing FlightAware ADS-B
Fri 03:34:01 PM 52.0905 -4.4110 109° East 468 539 33,500 -2,571 Descending FlightAware UK
Fri 03:34:19 PM 52.0767 -4.3491 110° East 468 539 33,500 2,500 Level FlightAware UK
Fri 03:34:37 PM 52.0650 -4.2970 110° East 486 559 35,000 2,903 Climbing FlightAware ADS-B
Fri 03:34:50 PM 52.0530 -4.2427 110° East 487 560 35,000 -3,000 Level FlightAware ADS-B
Fri 03:35:07 PM 52.0400 -4.1845 110° East 464 534 33,500  Descending FlightAware UK
Fri 03:35:21 PM 52.0293 -4.1399 110° East 487 560 35,000  Climbing FlightAware ADS-B
Fri 03:35:37 PM 52.0166 -4.0809 110° East 468 539 33,500  Descending FlightAware UK
Fri 03:35:51 PM 52.0054 -4.0335 110° East 487 560 35,000  Climbing FlightAware ADS-B
Fri 03:36:07 PM 51.9934 -3.9781 110° East 468 539 33,500  Descending FlightAware UK
Fri 03:36:22 PM 51.9822 -3.9308 110° East 487 560 35,000  Climbing FlightAware ADS-B
Fri 03:36:43 PM 51.9654 -3.8551 110° East 464 534 33,500  Descending FlightAware UK
Fri 03:36:52 PM 51.9581 -3.8252 110° East 487 560 35,000  Climbing FlightAware ADS-B
Fri 03:37:07 PM 51.9466 -3.7732 110° East 466 536 33,500  Descending FlightAware UK
Fri 03:37:23 PM 51.9344 -3.7225 110° East 487 560 35,000  Climbing FlightAware ADS-B
Fri 03:37:43 PM 51.9184 -3.6503 110° East 464 534 33,500  Descending FlightAware UK
Fri 03:37:56 PM 51.9082 -3.6066 110° East 487 560 35,000  Climbing FlightAware ADS-B
Fri 03:38:13 PM 51.8948 -3.5472 110° East 462 532 33,500  Descending FlightAware UK
Fri 03:38:28 PM 51.8828 -3.4971 110° East 489 563 35,000  Climbing FlightAware ADS-B
Fri 03:38:43 PM 51.8708 -3.4448 110° East 466 536 33,500  Descending FlightAware UK
Fri 03:38:59 PM 51.8585 -3.3948 110° East 488 562 35,000  Climbing FlightAware ADS-B
Fri 03:39:19 PM 51.8419 -3.3213 110° East 470 541 33,500  Descending FlightAware UK
Fri 03:39:32 PM 51.8330 -3.2860 110° East 487 560 35,000 3,000 Climbing FlightAware ADS-B
Fri 03:39:49 PM 51.8187 -3.2247 111° Southeast 489 563 35,000 -2,571 Level FlightAware ADS-B
Fri 03:40:07 PM 51.8036 -3.1580 111° Southeast 468 539 33,500  Descending FlightAware UK
Fri 03:40:19 PM 51.7942 -3.1195 111° Southeast 487 560 35,000  Climbing FlightAware ADS-B
Fri 03:40:37 PM 51.7796 -3.0570 111° Southeast 466 536 33,500  Descending FlightAware UK
Fri 03:40:50 PM 51.7693 -3.0146 111° Southeast 486 559 35,000  Climbing FlightAware ADS-B
Fri 03:41:07 PM 51.7554 -2.9540 111° Southeast 466 536 33,500  Descending FlightAware UK
Fri 03:41:29 PM 51.7381 -2.8828 111° Southeast 486 559 35,000  Climbing FlightAware ADS-B
Fri 03:41:49 PM 51.7215 -2.8123 111° Southeast 462 532 33,500  Descending FlightAware UK
Fri 03:42:01 PM 51.7123 -2.7745 111° Southeast 488 562 35,000  Climbing FlightAware ADS-B
Fri 03:42:19 PM 51.6970 -2.7110 111° Southeast 468 539 33,500  Descending FlightAware UK
Fri 03:42:31 PM 51.6875 -2.6731 111° Southeast 488 562 35,000  Climbing FlightAware ADS-B
Fri 03:42:50 PM 51.6724 -2.6089 111° Southeast 468 539 33,500  Descending FlightAware UK
Fri 03:43:02 PM 51.6621 -2.5680 111° Southeast 488 562 35,000  Climbing FlightAware ADS-B
Fri 03:43:19 PM 51.6481 -2.5080 111° Southeast 468 539 33,500  Descending FlightAware UK
Fri 03:43:33 PM 51.6374 -2.4665 111° Southeast 488 562 35,000  Climbing FlightAware ADS-B
Fri 03:43:50 PM 51.6234 -2.4059 111° Southeast 468 539 33,500  Descending FlightAware UK
Fri 03:44:03 PM 51.6120 -2.3621 111° Southeast 489 563 35,000  Climbing FlightAware ADS-B
Fri 03:44:26 PM 51.5935 -2.2846 111° Southeast 468 539 33,500  Descending FlightAware UK
Fri 03:44:34 PM 51.5870 -2.2611 111° Southeast 488 562 35,000  Climbing FlightAware ADS-B
Fri 03:44:56 PM 51.5686 -2.1835 111° Southeast 468 539 33,500  Descending FlightAware UK
Fri 03:45:05 PM 51.5610 -2.1530 111° Southeast 489 563 35,000  Climbing FlightAware ADS-B
Fri 03:45:20 PM 51.5485 -2.1020 111° Southeast 470 541 33,500  Descending FlightAware UK
Fri 03:45:35 PM 51.5360 -2.0524 111° Southeast 487 560 35,000  Climbing FlightAware ADS-B
Fri 03:45:56 PM 51.5185 -1.9811 111° Southeast 472 543 33,500  Descending FlightAware UK
Fri 03:46:06 PM 51.5104 -1.9516 111° Southeast 487 560 35,000  Climbing FlightAware ADS-B
Fri 03:46:26 PM 51.4935 -1.8807 111° Southeast 470 541 33,500  Descending FlightAware UK
Fri 03:46:37 PM 51.4845 -1.8482 111° Southeast 487 560 35,000 2,195 Climbing FlightAware ADS-B
Fri 03:47:07 PM 51.4594 -1.7478 112° Southeast 486 559 35,000  Level FlightAware ADS-B
Fri 03:47:37 PM 51.4340 -1.6446 112° Southeast 485 558 35,000 -1,837 Level FlightAware ADS-B
Fri 03:47:56 PM 51.4177 -1.5799 112° Southeast 472 543 33,500  Descending FlightAware UK
Fri 03:48:07 PM 51.4084 -1.5449 112° Southeast 485 558 35,000  Climbing FlightAware ADS-B
Fri 03:48:26 PM 51.3922 -1.4796 112° Southeast 470 541 33,500  Descending FlightAware UK
Fri 03:48:38 PM 51.3828 -1.4451 112° Southeast 484 557 35,000  Climbing FlightAware ADS-B
Fri 03:48:56 PM 51.3671 -1.3807 112° Southeast 470 541 33,500  Descending FlightAware UK
Fri 03:49:08 PM 51.3568 -1.3425 112° Southeast 484 557 35,000  Climbing FlightAware ADS-B
Fri 03:49:26 PM 51.3414 -1.2809 112° Southeast 474 545 33,500  Descending FlightAware UK
Fri 03:49:38 PM 51.3313 -1.2435 112° Southeast 483 556 35,000 3,000 Climbing FlightAware ADS-B
Fri 03:49:56 PM 51.3149 -1.1856 114° Southeast 480 552 35,000  Level FlightAware ADS-B
Fri 03:50:12 PM 51.2973 -1.1363 120° Southeast 477 549 35,000  Level FlightAware ADS-B
Fri 03:50:43 PM 51.2615 -1.0480 123° Southeast 472 543 35,000 -1,800 Level FlightAware ADS-B
Fri 03:51:02 PM 51.2374 -0.9879 123° Southeast 478 550 33,500  Descending FlightAware UK
Fri 03:51:13 PM 51.2251 -0.9619 123° Southeast 468 539 35,000  Climbing FlightAware ADS-B
Fri 03:51:32 PM 51.2010 -0.9022 123° Southeast 474 545 33,500  Descending FlightAware UK
Fri 03:51:43 PM 51.1881 -0.8733 123° Southeast 465 535 35,000  Climbing FlightAware ADS-B
Fri 03:52:02 PM 51.1648 -0.8171 123° Southeast 470 541 33,500  Descending FlightAware UK
Fri 03:52:14 PM 51.1509 -0.7857 123° Southeast 465 535 35,000  Climbing FlightAware ADS-B
Fri 03:52:32 PM 51.1288 -0.7322 123° Southeast 468 539 33,500  Descending FlightAware UK
Fri 03:52:44 PM 51.1149 -0.7012 123° Southeast 462 532 35,000  Climbing FlightAware ADS-B
Fri 03:53:03 PM 51.0927 -0.6471 123° Southeast 464 534 33,500  Descending FlightAware UK
Fri 03:53:15 PM 51.0783 -0.6139 123° Southeast 462 532 35,000  Climbing FlightAware ADS-B
Fri 03:53:33 PM 51.0569 -0.5630 123° Southeast 466 536 33,500  Descending FlightAware UK
Fri 03:53:45 PM 51.0422 -0.5300 123° Southeast 460 529 35,000  Climbing FlightAware ADS-B
Fri 03:54:09 PM 51.0137 -0.4619 123° Southeast 466 536 33,500  Descending FlightAware UK
Fri 03:54:17 PM 51.0041 -0.4407 123° Southeast 458 527 35,000  Climbing FlightAware ADS-B
Fri 03:54:39 PM 50.9781 -0.3786 123° Southeast 462 532 33,500  Descending FlightAware UK
Fri 03:54:48 PM 50.9679 -0.3577 123° Southeast 458 527 35,000  Climbing FlightAware ADS-B
Fri 03:55:03 PM 50.9493 -0.3118 123° Southeast 460 529 33,500  Descending FlightAware UK
Fri 03:55:18 PM 50.9321 -0.2745 123° Southeast 458 527 35,000  Climbing FlightAware ADS-B
Fri 03:55:33 PM 50.9136 -0.2289 123° Southeast 462 532 33,500 -387 Descending FlightAware UK
Fri 03:55:49 PM 50.8946 -0.1862 123° Southeast 456 525 34,800 383 Climbing FlightAware ADS-B
Fri 03:56:20 PM 50.8579 -0.1012 124° Southeast 452 520 33,800 -3,840 Descending FlightAware ADS-B
Fri 03:56:39 PM 50.8356 -0.0486 124° Southeast 458 527 31,600 -1,875 Descending FlightAware UK
Fri 03:56:52 PM 50.8206 -0.0151 124° Southeast 442 509 32,800 -1,800 Climbing FlightAware ADS-B
Fri 03:57:09 PM 50.8010 0.0303 124° Southeast 458 527 30,700 -2,118 Descending FlightAware UK
Fri 03:57:26 PM 50.7820 0.0712 124° Southeast 432 497 31,600 706 Climbing FlightAware ADS-B
Fri 03:57:43 PM 50.7608 0.1142 128° Southeast 416 479 31,100 -1,778 Descending FlightAware ADS-B
Fri 03:57:53 PM 50.7470 0.1355 136° Southeast 404 465 30,800 -4,846 Descending FlightAware ADS-B
Fri 03:58:09 PM 50.7249 0.1674 136° Southeast 444 511 29,000 -1,500 Descending FlightAware UK
Fri 03:58:25 PM 50.7037 0.1926 136° Southeast 387 445 30,000 766 Climbing FlightAware ADS-B
Fri 03:58:56 PM 50.6603 0.2483 141° Southeast 373 429 29,600 -2,640 Descending FlightAware ADS-B
Fri 03:59:15 PM 50.6349 0.2816 141° Southeast 428 493 27,800 -938 Descending FlightAware UK
Fri 03:59:28 PM 50.6182 0.3023 141° Southeast 363 418 29,100 -800 Climbing FlightAware ADS-B
Fri 03:59:45 PM 50.5956 0.3318 141° Southeast 420 483 27,400 -774 Descending FlightAware UK
Fri 03:59:59 PM 50.5781 0.3533 141° Southeast 358 412 28,700 1,500 Climbing FlightAware ADS-B
Fri 04:00:25 PM 50.5442 0.3947 142° Southeast 352 405 28,400 -923 Descending FlightAware ADS-B
Fri 04:00:38 PM 50.5278 0.4136 144° Southeast 346 398 28,100 -4,125 Descending FlightAware ADS-B
Fri 04:00:57 PM 50.5016 0.4411 144° Southeast 410 472 26,200 -1,000 Descending FlightAware UK
Fri 04:01:08 PM 50.4871 0.4543 144° Southeast 343 395 27,600 -1,000 Climbing FlightAware ADS-B
Fri 04:01:27 PM 50.4614 0.4802 144° Southeast 410 472 25,700 -968 Descending FlightAware UK
Fri 04:01:39 PM 50.4454 0.4942 144° Southeast 343 395 27,100 -1,000 Climbing FlightAware ADS-B
Fri 04:01:57 PM 50.4206 0.5184 144° Southeast 410 472 25,200 -1,029 Descending FlightAware UK
Fri 04:02:14 PM 50.3976 0.5390 144° Southeast 340 391 26,500 -1,000 Climbing FlightAware ADS-B
Fri 04:02:33 PM 50.3720 0.5642 144° Southeast 404 465 24,600 -882 Descending FlightAware UK
Fri 04:02:48 PM 50.3521 0.5823 144° Southeast 340 391 26,000 -200 Climbing FlightAware ADS-B
Fri 04:03:03 PM 50.3317 0.6023 144° Southeast 400 460 24,500 -2,308 Descending FlightAware UK
Fri 04:03:27 PM 50.2998 0.6329 149° Southeast 402 463 24,500  Level FlightAware UK
Fri 04:03:45 PM 50.2759 0.6560 148° Southeast 402 463 24,500 2,057 Level FlightAware UK
Fri 04:04:02 PM 50.2580 0.6730 148° Southeast 338 389 25,700 -2,000 Climbing FlightAware ADS-B
Fri 04:04:27 PM 50.2196 0.7102 148° Southeast 390 449 23,100 -2,000 Descending FlightAware UK
Fri 04:04:32 PM 50.2210 0.7080 148° Southeast 337 388 24,700 -2,000 Climbing FlightAware ADS-B
Fri 04:04:51 PM 50.1875 0.7407 148° Southeast 384 442 22,300 -1,440 Descending FlightAware UK
Fri 04:05:22 PM 50.1540 0.7720 148° Southeast 342 394 23,500 -875 Climbing FlightAware ADS-B
Fri 04:05:39 PM 50.1214 0.8040 148° Southeast 386 444 21,600 -3,943 Descending FlightAware UK
Fri 04:05:57 PM 50.0964 0.8276 149° Southeast 384 442 21,200 2,571 Descending FlightAware UK
Fri 04:06:07 PM 50.0960 0.8280 149° Southeast 345 397 22,800 -960 Climbing FlightAware ADS-B
Fri 04:06:22 PM 50.0627 0.8596 149° Southeast 382 440 20,800 -4,313 Descending FlightAware UK
Fri 04:06:39 PM 50.0383 0.8828 149° Southeast 380 437 20,500 2,880 Descending FlightAware UK
Fri 04:06:47 PM 50.0360 0.8850 149° Southeast 343 395 22,000 -1,000 Climbing FlightAware ADS-B
Fri 04:07:03 PM 50.0049 0.9151 149° Southeast 378 435 20,100 -900 Descending FlightAware UK
Fri 04:07:27 PM 49.9830 0.9340 149° Southeast 338 389 21,400 -977 Climbing FlightAware ADS-B
Fri 04:07:46 PM 49.9473 0.9693 149° Southeast 372 428 19,400 -1,067 Descending FlightAware UK
Fri 04:08:12 PM 49.9210 0.9930 149° Southeast 343 395 20,600 -1,000 Climbing FlightAware ADS-B
Fri 04:08:28 PM 49.8904 1.0227 149° Southeast 370 426 18,700 -1,050 Descending FlightAware UK
Fri 04:08:52 PM 49.8660 1.0450 149° Southeast 340 391 19,900 -1,000 Climbing FlightAware ADS-B
Fri 04:09:16 PM 49.8257 1.0838 149° Southeast 364 419 17,900 -3,286 Descending FlightAware UK
Fri 04:09:34 PM 49.8014 1.1064 149° Southeast 364 419 17,600 3,714 Descending FlightAware UK
Fri 04:09:37 PM 49.8050 1.1020 149° Southeast 340 391 19,200 -1,000 Climbing FlightAware ADS-B
Fri 04:09:52 PM 49.7771 1.1292 149° Southeast 360 414 17,300 -1,050 Descending FlightAware UK
Fri 04:10:17 PM 49.7510 1.1530 149° Southeast 338 389 18,500 -1,000 Climbing FlightAware ADS-B
Fri 04:10:34 PM 49.7206 1.1820 149° Southeast 358 412 16,600 -3,771 Descending FlightAware UK
Fri 04:10:52 PM 49.6964 1.2045 149° Southeast 356 410 16,300 3,391 Descending FlightAware UK
Fri 04:10:57 PM 49.6970 1.2030 149° Southeast 337 388 17,900 -1,000 Climbing FlightAware ADS-B
Fri 04:11:16 PM 49.6644 1.2345 149° Southeast 354 407 15,900 -3,730 Descending FlightAware UK
Fri 04:11:34 PM 49.6404 1.2569 149° Southeast 350 403 15,600 2,769 Descending FlightAware UK
Fri 04:11:42 PM 49.6370 1.2590 149° Southeast 336 387 17,100 -1,000 Climbing FlightAware ADS-B
Fri 04:11:58 PM 49.6084 1.2861 149° Southeast 352 405 15,200 -4,000 Descending FlightAware UK
Fri 04:12:15 PM 49.5846 1.3081 149° Southeast 350 403 14,900 3,250 Descending FlightAware UK
Fri 04:12:22 PM 49.5850 1.3070 149° Southeast 337 388 16,500 -968 Climbing FlightAware ADS-B
Fri 04:12:46 PM 49.5441 1.3461 149° Southeast 346 398 14,400 -1,050 Descending FlightAware UK
Fri 04:13:02 PM 49.5310 1.3580 149° Southeast 328 377 15,800 3,000 Climbing FlightAware ADS-B
Fri 04:13:10 PM 49.5129 1.3740 150° Southeast 336 387 15,600 -4,125 Descending FlightAware ADS-B
Fri 04:13:34 PM 49.4801 1.4054 150° Southeast 342 394 13,600 -938 Descending FlightAware UK
Fri 04:13:42 PM 49.4697 1.4148 150° Southeast 340 391 15,100 -750 Climbing FlightAware ADS-B
Fri 04:13:58 PM 49.4478 1.4351 150° Southeast 342 394 13,300 -1,125 Descending FlightAware UK
Fri 04:14:14 PM 49.4258 1.4545 150° Southeast 337 388 14,500 -1,000 Climbing FlightAware ADS-B
Fri 04:14:34 PM 49.3995 1.4796 150° Southeast 338 389 12,700 -3,316 Descending FlightAware UK
Fri 04:14:52 PM 49.3754 1.5015 149° Southeast 336 387 12,400 2,000 Descending FlightAware UK
Fri 04:15:04 PM 49.3601 1.5150 149° Southeast 337 388 13,700 -1,000 Climbing FlightAware ADS-B
Fri 04:15:22 PM 49.3369 1.5364 149° Southeast 334 384 11,900 -889 Descending FlightAware UK
Fri 04:15:31 PM 49.3266 1.5455 149° Southeast 319 367 13,300 5,200 Climbing FlightAware ADS-B
Fri 04:15:37 PM 49.3195 1.5534 144° Southeast 322 371 13,200 -667 Descending FlightAware ADS-B
Fri 04:15:40 PM 49.3160 1.5579 140° Southeast 324 373 13,200 -1,000 Level FlightAware ADS-B
Fri 04:15:43 PM 49.3126 1.5648 127° Southeast 328 377 13,100 -1,714 Descending FlightAware ADS-B
Fri 04:15:47 PM 49.3093 1.5702 133° Southeast 330 380 13,000 -750 Descending FlightAware ADS-B
Fri 04:15:51 PM 49.3055 1.5803 120° Southeast 335 386 13,000 -667 Level FlightAware ADS-B
Fri 04:15:56 PM 49.3022 1.5913 115° Southeast 340 391 12,900 -667 Descending FlightAware ADS-B
Fri 04:16:18 PM 49.2963 1.6420 100° East 352 405 12,700 -3,158 Descending FlightAware ADS-B
Fri 04:16:34 PM 49.2938 1.6850 100° East 332 382 10,900 -1,000 Descending FlightAware UK
Fri 04:16:48 PM 49.2928 1.7181 100° East 345 397 12,200 -800 Climbing FlightAware ADS-B
Fri 04:17:04 PM 49.2908 1.7587 100° East 324 373 10,500 -353 Descending FlightAware UK
Fri 04:17:22 PM 49.2898 1.7982 100° East 342 394 12,000 1,837 Climbing FlightAware ADS-B
Fri 04:17:53 PM 49.2868 1.8731 93° East 342 394 12,000  Level FlightAware ADS-B
Fri 04:18:23 PM 49.2834 1.9482 94° East 344 396 12,000 -1,915 Level FlightAware ADS-B
Fri 04:18:40 PM 49.2813 1.9918 94° East 326 375 10,500  Descending FlightAware UK
Fri 04:19:00 PM 49.2789 2.0382 94° East 344 396 12,000  Climbing FlightAware ADS-B
Fri 04:19:16 PM 49.2767 2.0789 94° East 324 373 10,500  Descending FlightAware UK
Fri 04:19:25 PM 49.2760 2.0991 94° East 344 396 12,000 2,250 Climbing FlightAware ADS-B
Fri 04:19:56 PM 49.2723 2.1739 94° East 335 386 12,000  Level FlightAware ADS-B
Fri 04:20:26 PM 49.2691 2.2411 94° East 304 350 12,000 -1,800 Level FlightAware ADS-B
Fri 04:20:46 PM 49.2681 2.2876 94° East 274 315 10,500  Descending FlightAware UK
Fri 04:20:57 PM 49.2660 2.3042 94° East 280 322 12,000 2,093 Climbing FlightAware ADS-B
Fri 04:21:29 PM 49.2628 2.3677 94° East 281 323 12,000  Level FlightAware ADS-B
Fri 04:22:00 PM 49.2595 2.4293 95° East 283 326 12,000 -190 Level FlightAware ADS-B
Fri 04:22:32 PM 49.2563 2.4930 94° East 280 322 11,800 -766 Descending FlightAware ADS-B
Fri 04:22:47 PM 49.2541 2.5225 96° East 281 323 11,400 -1,600 Descending FlightAware ADS-B
Fri 04:23:17 PM 49.2476 2.5807 100° East 276 318 10,600 -1,400 Descending FlightAware ADS-B
Fri 04:23:47 PM 49.2410 2.6373 100° East 268 308 10,000 -1,304 Descending FlightAware ADS-B
Fri 04:24:03 PM 49.2376 2.6667 100° East 264 304 9,600 -1,500 Descending FlightAware ADS-B
Fri 04:24:19 PM 49.2341 2.6958 100° East 261 300 9,200 -1,548 Descending FlightAware ADS-B
Fri 04:24:34 PM 49.2307 2.7231 101° East 259 298 8,800 -1,548 Descending FlightAware ADS-B
Fri 04:24:50 PM 49.2271 2.7518 101° East 257 296 8,400 -1,538 Descending FlightAware ADS-B
Fri 04:25:13 PM 49.2225 2.7927 100° East 256 295 7,800 -1,475 Descending FlightAware ADS-B
Fri 04:25:51 PM 49.2150 2.8576 100° East 256 295 6,900 -1,592 Descending FlightAware ADS-B
Fri 04:26:02 PM 49.2122 2.8780 102° East 247 284 6,500 -1,875 Descending FlightAware ADS-B
Fri 04:26:07 PM 49.2098 2.8844 120° Southeast 249 287 6,400 -1,333 Descending FlightAware ADS-B
Fri 04:26:11 PM 49.2072 2.8902 125° Southeast 249 287 6,300 -1,714 Descending FlightAware ADS-B
Fri 04:26:14 PM 49.2047 2.8955 126° Southeast 250 288 6,200 -1,714 Descending FlightAware ADS-B
Fri 04:26:18 PM 49.2013 2.8990 146° Southeast 250 288 6,100 -1,714 Descending FlightAware ADS-B
Fri 04:26:21 PM 49.1983 2.9021 146° Southeast 249 287 6,000 -2,000 Descending FlightAware ADS-B
Fri 04:26:24 PM 49.1952 2.9046 152° Southeast 249 287 5,900 -2,571 Descending FlightAware ADS-B
Fri 04:26:28 PM 49.1909 2.9072 158° South 249 287 5,700 -2,250 Descending FlightAware ADS-B
Fri 04:26:32 PM 49.1862 2.9092 164° South 249 287 5,600 -1,714 Descending FlightAware ADS-B
Fri 04:26:35 PM 49.1823 2.9096 176° South 249 287 5,500 -1,714 Descending FlightAware ADS-B
Fri 04:26:39 PM 49.1776 2.9093 182° South 250 288 5,400 -1,600 Descending FlightAware ADS-B
Fri 04:26:50 PM 49.1658 2.9042 196° South 251 289 5,100 -1,714 Descending FlightAware ADS-B
Fri 04:26:53 PM 49.1628 2.9014 210° Southwest 251 289 5,000 -1,385 Descending FlightAware ADS-B
Fri 04:27:03 PM 49.1530 2.8901 217° Southwest 257 296 4,800 -1,286 Descending FlightAware ADS-B
Fri 04:27:07 PM 49.1486 2.8867 207° Southwest 261 300 4,700 -2,000 Descending FlightAware ADS-B
Fri 04:27:12 PM 49.1432 2.8841 197° South 260 299 4,500 -1,500 Descending FlightAware ADS-B
Fri 04:27:15 PM 49.1396 2.8826 195° South 261 300 4,500 -1,000 Level FlightAware ADS-B
Fri 04:27:18 PM 49.1358 2.8821 185° South 261 300 4,400 -1,333 Descending FlightAware ADS-B
Fri 04:27:24 PM 49.1289 2.8824 178° South 258 297 4,300 -1,091 Descending FlightAware ADS-B
Fri 04:27:29 PM 49.1229 2.8847 166° South 258 297 4,200 -1,333 Descending FlightAware ADS-B
Fri 04:27:33 PM 49.1189 2.8865 164° South 256 295 4,100 -632 Descending FlightAware ADS-B
Fri 04:27:48 PM 49.1024 2.8952 161° South 252 290 4,000 -200 Descending FlightAware ADS-B
Fri 04:28:03 PM 49.0854 2.9035 162° South 253 291 4,000  Level FlightAware ADS-B
Fri 04:28:31 PM 49.0540 2.9193 162° South 254 292 4,000  Level FlightAware ADS-B
Fri 04:28:41 PM 49.0421 2.9244 164° South 252 290 4,000  Level FlightAware ADS-B
Fri 04:28:49 PM 49.0335 2.9256 175° South 251 289 4,000  Level FlightAware ADS-B
Fri 04:28:56 PM 49.0248 2.9231 191° South 252 290 4,000  Level FlightAware ADS-B
Fri 04:29:04 PM 49.0163 2.9170 205° Southwest 250 288 4,000  Level FlightAware ADS-B
Fri 04:29:08 PM 49.0130 2.9127 220° Southwest 244 281 4,000  Level FlightAware ADS-B
Fri 04:29:12 PM 49.0100 2.9078 227° Southwest 238 274 4,000  Level FlightAware ADS-B
Fri 04:29:15 PM 49.0078 2.9036 232° Southwest 231 266 4,000  Level FlightAware ADS-B
Fri 04:29:21 PM 49.0059 2.8949 252° West 221 254 4,000  Level FlightAware ADS-B
Fri 04:29:24 PM 49.0055 2.8906 262° West 209 241 4,000  Level FlightAware ADS-B
Fri 04:29:28 PM 49.0057 2.8850 273° West 198 228 4,000 750 Level FlightAware ADS-B
Fri 04:29:32 PM 49.0064 2.8798 282° West 189 217 4,100 545 Climbing FlightAware ADS-B
Fri 04:29:39 PM 49.0081 2.8711 287° West 183 211 4,100 -727 Level FlightAware ADS-B
Fri 04:30:05 PM 49.0073 2.8372 268° West 184 212 3,700 -968 Descending FlightAware ADS-B
Fri 04:30:10 PM 49.0065 2.8301 260° West 209 241 3,600 -2,000 Descending FlightAware ADS-B
Fri 04:30:17 PM 49.0058 2.8196 264° West 213 245 3,300 -1,636 Descending FlightAware ADS-B
Fri 04:30:32 PM 49.0050 2.7978 267° West 200 230 3,000 -1,161 Descending FlightAware ADS-B
Fri 04:30:48 PM 49.0040 2.7761 266° West 190 219 2,700 -1,050 Descending FlightAware ADS-B
Fri 04:31:12 PM 49.0024 2.7454 265° West 171 197 2,300 -1,050 Descending FlightAware ADS-B
Fri 04:31:28 PM 49.0015 2.7283 265° West 160 184 2,000 -1,000 Descending FlightAware ADS-B
Fri 04:31:36 PM 49.0010 2.7182 266° West 161 185 1,900 -900 Descending FlightAware ADS-B
Fri 04:31:48 PM 49.0002 2.7047 265° West 160 184 1,700 -774 Descending FlightAware ADS-B
Fri 04:32:07 PM 48.9992 2.6846 266° West 144 166 1,500 -720 Descending FlightAware ADS-B
Fri 04:32:13 PM 48.9989 2.6786 266° West 143 165 1,400 -800 Descending FlightAware ADS-B
Fri 04:32:22 PM 48.9984 2.6694 265° West 144 166 1,300 -818 Descending FlightAware ADS-B
Fri 04:32:35 PM 48.9977 2.6563 265° West 142 163 1,100 -783 Descending FlightAware ADS-B
Fri 04:32:45 PM 48.9972 2.6464 266° West 141 162 1,000 -800 Descending FlightAware ADS-B
Fri 04:32:50 PM 48.9969 2.6414 265° West 140 161 900 -923 Descending FlightAware ADS-B
Fri 04:32:58 PM 48.9964 2.6335 264° West 141 162 800 -947 Descending FlightAware ADS-B
Fri 04:33:09 PM 48.9959 2.6228 266° West 139 160 600 -667 Descending FlightAware ADS-B
Fri 04:33:25 PM 48.9951 2.6071 266° West 139 160 500 -375 Descending FlightAware ADS-B

Login

Don't have an account? Register now (free) for customized features, flight alerts, and more!